sensor_id;sensor_type;location;lat;lon;timestamp;temperature;humidity
48994;DHT22;34804;49.214;12.276;2023-06-24T00:01:02;14.60;92.80
48994;DHT22;34804;49.214;12.276;2023-06-24T00:03:29;14.70;92.80
48994;DHT22;34804;49.214;12.276;2023-06-24T00:05:56;14.70;93.00
48994;DHT22;34804;49.214;12.276;2023-06-24T00:08:23;14.70;93.00
48994;DHT22;34804;49.214;12.276;2023-06-24T00:10:50;14.60;92.70
48994;DHT22;34804;49.214;12.276;2023-06-24T00:13:17;14.60;92.90
48994;DHT22;34804;49.214;12.276;2023-06-24T00:15:44;14.60;93.00
48994;DHT22;34804;49.214;12.276;2023-06-24T00:18:11;14.60;93.00
48994;DHT22;34804;49.214;12.276;2023-06-24T00:20:38;14.60;93.00
48994;DHT22;34804;49.214;12.276;2023-06-24T00:23:05;14.60;93.10
48994;DHT22;34804;49.214;12.276;2023-06-24T00:25:32;14.60;93.20
48994;DHT22;34804;49.214;12.276;2023-06-24T00:27:59;14.70;93.30
48994;DHT22;34804;49.214;12.276;2023-06-24T00:30:26;14.70;93.40
48994;DHT22;34804;49.214;12.276;2023-06-24T00:32:54;14.70;92.90
48994;DHT22;34804;49.214;12.276;2023-06-24T00:35:20;14.70;93.10
48994;DHT22;34804;49.214;12.276;2023-06-24T00:37:47;14.70;93.20
48994;DHT22;34804;49.214;12.276;2023-06-24T00:40:14;14.70;93.00
48994;DHT22;34804;49.214;12.276;2023-06-24T00:42:44;14.60;93.50
48994;DHT22;34804;49.214;12.276;2023-06-24T00:45:12;14.80;93.40
48994;DHT22;34804;49.214;12.276;2023-06-24T00:47:39;14.70;93.30
48994;DHT22;34804;49.214;12.276;2023-06-24T00:50:06;14.70;93.40
48994;DHT22;34804;49.214;12.276;2023-06-24T00:52:33;14.70;93.10
48994;DHT22;34804;49.214;12.276;2023-06-24T00:55:04;14.60;93.10
48994;DHT22;34804;49.214;12.276;2023-06-24T00:57:31;14.50;93.00
48994;DHT22;34804;49.214;12.276;2023-06-24T00:59:59;14.40;93.30
48994;DHT22;34804;49.214;12.276;2023-06-24T01:02:27;14.40;93.40
48994;DHT22;34804;49.214;12.276;2023-06-24T01:04:55;14.40;93.50
48994;DHT22;34804;49.214;12.276;2023-06-24T01:07:23;14.50;93.60
48994;DHT22;34804;49.214;12.276;2023-06-24T01:09:51;14.50;93.70
48994;DHT22;34804;49.214;12.276;2023-06-24T01:12:17;14.50;93.60
48994;DHT22;34804;49.214;12.276;2023-06-24T01:14:44;14.50;93.60
48994;DHT22;34804;49.214;12.276;2023-06-24T01:17:25;14.50;93.40
48994;DHT22;34804;49.214;12.276;2023-06-24T01:20:04;14.40;93.40
48994;DHT22;34804;49.214;12.276;2023-06-24T01:25:38;14.50;93.70
48994;DHT22;34804;49.214;12.276;2023-06-24T01:28:39;14.50;93.90
48994;DHT22;34804;49.214;12.276;2023-06-24T01:31:34;14.50;93.90
48994;DHT22;34804;49.214;12.276;2023-06-24T01:34:43;14.60;94.00
48994;DHT22;34804;49.214;12.276;2023-06-24T01:37:19;14.60;94.00
48994;DHT22;34804;49.214;12.276;2023-06-24T01:39:56;14.60;94.00
48994;DHT22;34804;49.214;12.276;2023-06-24T01:42:24;14.60;93.70
48994;DHT22;34804;49.214;12.276;2023-06-24T01:44:51;14.50;93.70
48994;DHT22;34804;49.214;12.276;2023-06-24T01:47:22;14.50;93.80
48994;DHT22;34804;49.214;12.276;2023-06-24T01:49:52;14.50;93.70
48994;DHT22;34804;49.214;12.276;2023-06-24T01:52:23;14.40;93.40
48994;DHT22;34804;49.214;12.276;2023-06-24T01:54:55;14.50;93.80
48994;DHT22;34804;49.214;12.276;2023-06-24T01:57:25;14.50;93.70
48994;DHT22;34804;49.214;12.276;2023-06-24T01:59:54;14.50;93.80
48994;DHT22;34804;49.214;12.276;2023-06-24T02:02:22;14.60;94.00
48994;DHT22;34804;49.214;12.276;2023-06-24T02:04:54;14.50;94.00
48994;DHT22;34804;49.214;12.276;2023-06-24T02:07:22;14.60;94.00
48994;DHT22;34804;49.214;12.276;2023-06-24T02:09:51;14.50;94.10
48994;DHT22;34804;49.214;12.276;2023-06-24T02:12:19;14.60;94.00
48994;DHT22;34804;49.214;12.276;2023-06-24T02:14:47;14.60;94.30
48994;DHT22;34804;49.214;12.276;2023-06-24T02:17:15;14.70;94.00
48994;DHT22;34804;49.214;12.276;2023-06-24T02:19:44;14.70;93.80
48994;DHT22;34804;49.214;12.276;2023-06-24T02:22:11;14.70;93.70
48994;DHT22;34804;49.214;12.276;2023-06-24T02:24:38;14.70;93.80
48994;DHT22;34804;49.214;12.276;2023-06-24T02:27:08;14.70;93.80
48994;DHT22;34804;49.214;12.276;2023-06-24T02:29:36;14.60;93.50
48994;DHT22;34804;49.214;12.276;2023-06-24T02:32:04;14.60;93.80
48994;DHT22;34804;49.214;12.276;2023-06-24T02:34:32;14.60;93.90
48994;DHT22;34804;49.214;12.276;2023-06-24T02:36:59;14.60;93.60
48994;DHT22;34804;49.214;12.276;2023-06-24T02:39:26;14.50;93.90
48994;DHT22;34804;49.214;12.276;2023-06-24T02:41:54;14.40;93.90
48994;DHT22;34804;49.214;12.276;2023-06-24T02:44:21;14.40;94.00
48994;DHT22;34804;49.214;12.276;2023-06-24T02:46:49;14.40;94.10
48994;DHT22;34804;49.214;12.276;2023-06-24T02:49:17;14.40;94.20
48994;DHT22;34804;49.214;12.276;2023-06-24T02:51:44;14.30;94.40
48994;DHT22;34804;49.214;12.276;2023-06-24T02:54:12;14.40;94.50
48994;DHT22;34804;49.214;12.276;2023-06-24T02:56:40;14.40;94.40
48994;DHT22;34804;49.214;12.276;2023-06-24T02:59:08;14.40;94.40
48994;DHT22;34804;49.214;12.276;2023-06-24T03:01:36;14.30;94.40
48994;DHT22;34804;49.214;12.276;2023-06-24T03:04:05;14.40;94.40
48994;DHT22;34804;49.214;12.276;2023-06-24T03:06:33;14.30;94.40
48994;DHT22;34804;49.214;12.276;2023-06-24T03:09:03;14.30;94.50
48994;DHT22;34804;49.214;12.276;2023-06-24T03:11:30;14.30;94.50
48994;DHT22;34804;49.214;12.276;2023-06-24T03:14:00;14.30;94.50
48994;DHT22;34804;49.214;12.276;2023-06-24T03:16:26;14.40;94.50
48994;DHT22;34804;49.214;12.276;2023-06-24T03:18:53;14.40;94.50
48994;DHT22;34804;49.214;12.276;2023-06-24T03:21:20;14.40;94.50
48994;DHT22;34804;49.214;12.276;2023-06-24T03:23:47;14.50;94.60
48994;DHT22;34804;49.214;12.276;2023-06-24T03:26:13;14.50;94.40
48994;DHT22;34804;49.214;12.276;2023-06-24T03:28:40;14.40;94.10
48994;DHT22;34804;49.214;12.276;2023-06-24T03:31:07;14.40;94.30
48994;DHT22;34804;49.214;12.276;2023-06-24T03:33:34;14.50;94.50
48994;DHT22;34804;49.214;12.276;2023-06-24T03:36:01;14.60;94.50
48994;DHT22;34804;49.214;12.276;2023-06-24T03:38:28;14.50;94.10
48994;DHT22;34804;49.214;12.276;2023-06-24T03:40:55;14.50;94.20
48994;DHT22;34804;49.214;12.276;2023-06-24T03:43:22;14.50;94.20
48994;DHT22;34804;49.214;12.276;2023-06-24T03:45:48;14.50;94.20
48994;DHT22;34804;49.214;12.276;2023-06-24T03:48:15;14.50;94.10
48994;DHT22;34804;49.214;12.276;2023-06-24T03:50:42;14.60;94.30
48994;DHT22;34804;49.214;12.276;2023-06-24T03:53:09;14.60;94.20
48994;DHT22;34804;49.214;12.276;2023-06-24T03:55:36;14.60;94.10
48994;DHT22;34804;49.214;12.276;2023-06-24T03:58:03;14.60;94.30
48994;DHT22;34804;49.214;12.276;2023-06-24T04:00:30;14.70;94.20
48994;DHT22;34804;49.214;12.276;2023-06-24T04:02:56;14.70;94.00
48994;DHT22;34804;49.214;12.276;2023-06-24T04:05:28;14.70;94.00
48994;DHT22;34804;49.214;12.276;2023-06-24T04:07:55;14.80;93.90
48994;DHT22;34804;49.214;12.276;2023-06-24T04:10:22;14.80;94.00
48994;DHT22;34804;49.214;12.276;2023-06-24T04:12:49;14.80;94.00
48994;DHT22;34804;49.214;12.276;2023-06-24T04:15:16;14.80;94.00
48994;DHT22;34804;49.214;12.276;2023-06-24T04:17:42;14.80;94.10
48994;DHT22;34804;49.214;12.276;2023-06-24T04:20:10;14.90;93.80
48994;DHT22;34804;49.214;12.276;2023-06-24T04:22:37;14.80;93.90
48994;DHT22;34804;49.214;12.276;2023-06-24T04:25:05;14.90;93.80
48994;DHT22;34804;49.214;12.276;2023-06-24T04:27:35;15.00;93.60
48994;DHT22;34804;49.214;12.276;2023-06-24T04:30:03;15.10;93.60
48994;DHT22;34804;49.214;12.276;2023-06-24T04:32:30;15.10;93.50
48994;DHT22;34804;49.214;12.276;2023-06-24T04:35:00;15.20;93.70
48994;DHT22;34804;49.214;12.276;2023-06-24T04:37:30;15.20;93.10
48994;DHT22;34804;49.214;12.276;2023-06-24T04:39:57;15.30;92.90
48994;DHT22;34804;49.214;12.276;2023-06-24T04:42:24;15.30;92.70
48994;DHT22;34804;49.214;12.276;2023-06-24T04:44:51;15.30;92.70
48994;DHT22;34804;49.214;12.276;2023-06-24T04:47:18;15.30;92.40
48994;DHT22;34804;49.214;12.276;2023-06-24T04:49:45;15.30;92.40
48994;DHT22;34804;49.214;12.276;2023-06-24T04:52:12;15.40;92.10
48994;DHT22;34804;49.214;12.276;2023-06-24T04:54:39;15.40;91.90
48994;DHT22;34804;49.214;12.276;2023-06-24T04:57:08;15.40;91.80
48994;DHT22;34804;49.214;12.276;2023-06-24T04:59:35;15.50;91.80
48994;DHT22;34804;49.214;12.276;2023-06-24T05:02:04;15.50;91.80
48994;DHT22;34804;49.214;12.276;2023-06-24T05:04:31;15.50;91.70
48994;DHT22;34804;49.214;12.276;2023-06-24T05:06:58;15.50;91.60
48994;DHT22;34804;49.214;12.276;2023-06-24T05:09:25;15.50;91.80
48994;DHT22;34804;49.214;12.276;2023-06-24T05:11:52;15.60;91.90
48994;DHT22;34804;49.214;12.276;2023-06-24T05:14:18;15.80;92.00
48994;DHT22;34804;49.214;12.276;2023-06-24T05:16:45;15.90;91.80
48994;DHT22;34804;49.214;12.276;2023-06-24T05:19:12;16.00;91.70
48994;DHT22;34804;49.214;12.276;2023-06-24T05:21:39;16.00;90.80
48994;DHT22;34804;49.214;12.276;2023-06-24T05:24:06;16.10;91.10
48994;DHT22;34804;49.214;12.276;2023-06-24T05:26:33;16.20;90.90
48994;DHT22;34804;49.214;12.276;2023-06-24T05:28:59;16.30;90.50
48994;DHT22;34804;49.214;12.276;2023-06-24T05:31:26;16.30;90.00
48994;DHT22;34804;49.214;12.276;2023-06-24T05:33:53;16.30;90.20
48994;DHT22;34804;49.214;12.276;2023-06-24T05:36:20;16.30;89.40
48994;DHT22;34804;49.214;12.276;2023-06-24T05:38:47;16.30;89.20
48994;DHT22;34804;49.214;12.276;2023-06-24T05:41:15;16.40;89.30
48994;DHT22;34804;49.214;12.276;2023-06-24T05:43:43;16.40;89.20
48994;DHT22;34804;49.214;12.276;2023-06-24T05:46:10;16.60;89.70
48994;DHT22;34804;49.214;12.276;2023-06-24T05:48:37;16.50;88.20
48994;DHT22;34804;49.214;12.276;2023-06-24T05:51:04;16.50;88.40
48994;DHT22;34804;49.214;12.276;2023-06-24T05:53:31;16.60;88.40
48994;DHT22;34804;49.214;12.276;2023-06-24T05:55:57;16.80;88.00
48994;DHT22;34804;49.214;12.276;2023-06-24T05:58:24;16.80;87.60
48994;DHT22;34804;49.214;12.276;2023-06-24T06:00:51;16.70;87.30
48994;DHT22;34804;49.214;12.276;2023-06-24T06:03:18;16.80;87.30
48994;DHT22;34804;49.214;12.276;2023-06-24T06:05:45;16.90;87.10
48994;DHT22;34804;49.214;12.276;2023-06-24T06:08:12;17.10;86.70
48994;DHT22;34804;49.214;12.276;2023-06-24T06:10:39;17.30;83.70
48994;DHT22;34804;49.214;12.276;2023-06-24T06:13:06;17.30;83.90
48994;DHT22;34804;49.214;12.276;2023-06-24T06:15:32;17.40;83.80
48994;DHT22;34804;49.214;12.276;2023-06-24T06:18:00;17.30;84.30
48994;DHT22;34804;49.214;12.276;2023-06-24T06:20:27;17.30;83.60
48994;DHT22;34804;49.214;12.276;2023-06-24T06:22:54;17.50;84.90
48994;DHT22;34804;49.214;12.276;2023-06-24T06:25:21;17.60;84.30
48994;DHT22;34804;49.214;12.276;2023-06-24T06:27:47;17.50;83.80
48994;DHT22;34804;49.214;12.276;2023-06-24T06:30:15;17.40;84.00
48994;DHT22;34804;49.214;12.276;2023-06-24T06:32:41;17.50;84.00
48994;DHT22;34804;49.214;12.276;2023-06-24T06:35:09;17.50;83.20
48994;DHT22;34804;49.214;12.276;2023-06-24T06:37:36;17.40;83.10
48994;DHT22;34804;49.214;12.276;2023-06-24T06:40:03;17.40;82.90
48994;DHT22;34804;49.214;12.276;2023-06-24T06:42:30;17.50;82.70
48994;DHT22;34804;49.214;12.276;2023-06-24T06:44:57;17.70;83.30
48994;DHT22;34804;49.214;12.276;2023-06-24T06:47:24;17.80;81.90
48994;DHT22;34804;49.214;12.276;2023-06-24T06:49:50;17.80;81.90
48994;DHT22;34804;49.214;12.276;2023-06-24T06:52:17;17.80;82.60
48994;DHT22;34804;49.214;12.276;2023-06-24T06:54:44;17.80;81.20
48994;DHT22;34804;49.214;12.276;2023-06-24T06:57:11;17.80;81.50
48994;DHT22;34804;49.214;12.276;2023-06-24T06:59:37;17.90;81.80
48994;DHT22;34804;49.214;12.276;2023-06-24T07:02:05;17.90;82.80
48994;DHT22;34804;49.214;12.276;2023-06-24T07:04:32;18.00;83.40
48994;DHT22;34804;49.214;12.276;2023-06-24T07:06:59;18.00;83.60
48994;DHT22;34804;49.214;12.276;2023-06-24T07:09:26;18.10;83.00
48994;DHT22;34804;49.214;12.276;2023-06-24T07:11:53;18.10;82.30
48994;DHT22;34804;49.214;12.276;2023-06-24T07:14:19;18.20;82.50
48994;DHT22;34804;49.214;12.276;2023-06-24T07:16:46;18.30;81.00
48994;DHT22;34804;49.214;12.276;2023-06-24T07:19:13;18.40;80.70
48994;DHT22;34804;49.214;12.276;2023-06-24T07:21:40;18.70;81.80
48994;DHT22;34804;49.214;12.276;2023-06-24T07:24:10;18.80;80.10
48994;DHT22;34804;49.214;12.276;2023-06-24T07:26:37;19.00;78.90
48994;DHT22;34804;49.214;12.276;2023-06-24T07:29:08;19.00;77.10
48994;DHT22;34804;49.214;12.276;2023-06-24T07:31:36;19.20;78.20
48994;DHT22;34804;49.214;12.276;2023-06-24T07:34:04;19.30;76.60
48994;DHT22;34804;49.214;12.276;2023-06-24T07:36:31;19.30;77.80
48994;DHT22;34804;49.214;12.276;2023-06-24T07:38:58;19.60;76.80
48994;DHT22;34804;49.214;12.276;2023-06-24T07:41:25;19.80;75.10
48994;DHT22;34804;49.214;12.276;2023-06-24T07:43:52;19.90;74.80
48994;DHT22;34804;49.214;12.276;2023-06-24T07:46:20;20.10;76.10
48994;DHT22;34804;49.214;12.276;2023-06-24T07:48:47;19.80;74.40
48994;DHT22;34804;49.214;12.276;2023-06-24T07:51:14;19.50;77.50
48994;DHT22;34804;49.214;12.276;2023-06-24T07:53:40;19.70;75.30
48994;DHT22;34804;49.214;12.276;2023-06-24T07:56:07;19.80;75.00
48994;DHT22;34804;49.214;12.276;2023-06-24T07:58:34;20.10;76.10
48994;DHT22;34804;49.214;12.276;2023-06-24T08:01:02;20.30;72.20
48994;DHT22;34804;49.214;12.276;2023-06-24T08:03:29;20.20;73.90
48994;DHT22;34804;49.214;12.276;2023-06-24T08:05:56;20.50;74.90
48994;DHT22;34804;49.214;12.276;2023-06-24T08:08:23;20.60;72.80
48994;DHT22;34804;49.214;12.276;2023-06-24T08:10:50;20.80;73.70
48994;DHT22;34804;49.214;12.276;2023-06-24T08:13:17;20.90;72.80
48994;DHT22;34804;49.214;12.276;2023-06-24T08:15:44;20.70;72.40
48994;DHT22;34804;49.214;12.276;2023-06-24T08:18:11;20.60;72.00
48994;DHT22;34804;49.214;12.276;2023-06-24T08:20:38;20.30;73.10
48994;DHT22;34804;49.214;12.276;2023-06-24T08:23:05;20.20;74.00
48994;DHT22;34804;49.214;12.276;2023-06-24T08:25:32;20.30;73.40
48994;DHT22;34804;49.214;12.276;2023-06-24T08:27:59;20.50;71.90
48994;DHT22;34804;49.214;12.276;2023-06-24T08:30:26;20.70;72.80
48994;DHT22;34804;49.214;12.276;2023-06-24T08:32:53;20.80;71.10
48994;DHT22;34804;49.214;12.276;2023-06-24T08:35:20;20.80;69.70
48994;DHT22;34804;49.214;12.276;2023-06-24T08:37:46;20.50;70.10
48994;DHT22;34804;49.214;12.276;2023-06-24T08:40:13;20.50;67.00
48994;DHT22;34804;49.214;12.276;2023-06-24T08:42:40;20.60;65.90
48994;DHT22;34804;49.214;12.276;2023-06-24T08:45:07;20.80;68.20
48994;DHT22;34804;49.214;12.276;2023-06-24T08:47:35;20.80;67.30
48994;DHT22;34804;49.214;12.276;2023-06-24T08:50:05;21.20;69.90
48994;DHT22;34804;49.214;12.276;2023-06-24T08:52:36;21.20;65.50
48994;DHT22;34804;49.214;12.276;2023-06-24T08:55:06;21.10;69.90
48994;DHT22;34804;49.214;12.276;2023-06-24T08:57:34;20.90;68.60
48994;DHT22;34804;49.214;12.276;2023-06-24T09:00:01;20.70;69.20
48994;DHT22;34804;49.214;12.276;2023-06-24T09:02:29;20.40;67.40
48994;DHT22;34804;49.214;12.276;2023-06-24T09:04:56;20.80;68.10
48994;DHT22;34804;49.214;12.276;2023-06-24T09:07:25;21.10;63.80
48994;DHT22;34804;49.214;12.276;2023-06-24T09:09:53;21.30;64.80
48994;DHT22;34804;49.214;12.276;2023-06-24T09:12:20;21.40;62.50
48994;DHT22;34804;49.214;12.276;2023-06-24T09:14:50;21.80;66.50
48994;DHT22;34804;49.214;12.276;2023-06-24T09:17:18;21.90;64.80
48994;DHT22;34804;49.214;12.276;2023-06-24T09:19:49;22.00;61.50
48994;DHT22;34804;49.214;12.276;2023-06-24T09:22:17;22.40;61.70
48994;DHT22;34804;49.214;12.276;2023-06-24T09:24:48;22.50;58.00
48994;DHT22;34804;49.214;12.276;2023-06-24T09:27:16;22.60;58.60
48994;DHT22;34804;49.214;12.276;2023-06-24T09:29:44;22.90;58.60
48994;DHT22;34804;49.214;12.276;2023-06-24T09:32:11;23.30;59.30
48994;DHT22;34804;49.214;12.276;2023-06-24T09:34:38;23.40;56.30
48994;DHT22;34804;49.214;12.276;2023-06-24T09:37:06;23.30;53.60
48994;DHT22;34804;49.214;12.276;2023-06-24T09:39:37;23.30;58.30
48994;DHT22;34804;49.214;12.276;2023-06-24T09:42:05;22.80;59.90
48994;DHT22;34804;49.214;12.276;2023-06-24T09:44:33;22.40;65.20
48994;DHT22;34804;49.214;12.276;2023-06-24T09:47:00;22.30;61.90
48994;DHT22;34804;49.214;12.276;2023-06-24T09:49:28;22.20;61.00
48994;DHT22;34804;49.214;12.276;2023-06-24T09:51:59;22.30;59.50
48994;DHT22;34804;49.214;12.276;2023-06-24T09:54:27;22.50;54.60
48994;DHT22;34804;49.214;12.276;2023-06-24T09:57:01;22.90;55.20
48994;DHT22;34804;49.214;12.276;2023-06-24T09:59:30;23.30;53.50
48994;DHT22;34804;49.214;12.276;2023-06-24T10:01:58;23.10;53.10
48994;DHT22;34804;49.214;12.276;2023-06-24T10:04:27;22.90;58.40
48994;DHT22;34804;49.214;12.276;2023-06-24T10:06:55;22.80;58.00
48994;DHT22;34804;49.214;12.276;2023-06-24T10:09:22;22.80;58.40
48994;DHT22;34804;49.214;12.276;2023-06-24T10:11:49;22.90;54.80
48994;DHT22;34804;49.214;12.276;2023-06-24T10:14:16;23.10;53.80
48994;DHT22;34804;49.214;12.276;2023-06-24T10:16:44;22.90;53.80
48994;DHT22;34804;49.214;12.276;2023-06-24T10:19:19;22.60;54.80
48994;DHT22;34804;49.214;12.276;2023-06-24T10:21:58;23.00;53.70
48994;DHT22;34804;49.214;12.276;2023-06-24T10:27:04;23.90;55.30
48994;DHT22;34804;49.214;12.276;2023-06-24T10:29:36;24.30;53.80
48994;DHT22;34804;49.214;12.276;2023-06-24T10:32:07;24.10;49.80
48994;DHT22;34804;49.214;12.276;2023-06-24T10:44:47;23.70;53.00
48994;DHT22;34804;49.214;12.276;2023-06-24T10:47:14;23.60;54.50
48994;DHT22;34804;49.214;12.276;2023-06-24T10:49:41;23.60;55.80
48994;DHT22;34804;49.214;12.276;2023-06-24T10:52:09;24.20;53.10
48994;DHT22;34804;49.214;12.276;2023-06-24T10:54:37;24.30;50.00
48994;DHT22;34804;49.214;12.276;2023-06-24T10:57:05;24.80;50.20
48994;DHT22;34804;49.214;12.276;2023-06-24T10:59:39;24.90;48.70
48994;DHT22;34804;49.214;12.276;2023-06-24T11:02:07;25.10;47.40
48994;DHT22;34804;49.214;12.276;2023-06-24T11:07:19;25.40;48.90
48994;DHT22;34804;49.214;12.276;2023-06-24T11:12:18;24.60;49.90
48994;DHT22;34804;49.214;12.276;2023-06-24T11:14:45;25.00;47.70
48994;DHT22;34804;49.214;12.276;2023-06-24T11:17:11;25.50;49.30
48994;DHT22;34804;49.214;12.276;2023-06-24T11:19:38;25.80;44.80
48994;DHT22;34804;49.214;12.276;2023-06-24T11:22:07;25.90;44.50
48994;DHT22;34804;49.214;12.276;2023-06-24T11:24:35;26.10;44.10
48994;DHT22;34804;49.214;12.276;2023-06-24T11:27:04;26.00;43.70
48994;DHT22;34804;49.214;12.276;2023-06-24T11:29:33;25.80;43.40
48994;DHT22;34804;49.214;12.276;2023-06-24T11:32:02;25.70;42.90
48994;DHT22;34804;49.214;12.276;2023-06-24T11:34:29;26.00;44.40
48994;DHT22;34804;49.214;12.276;2023-06-24T11:36:56;26.00;46.20
48994;DHT22;34804;49.214;12.276;2023-06-24T11:39:27;25.60;46.90
48994;DHT22;34804;49.214;12.276;2023-06-24T11:41:57;25.80;48.40
48994;DHT22;34804;49.214;12.276;2023-06-24T11:44:24;26.10;46.80
48994;DHT22;34804;49.214;12.276;2023-06-24T11:46:51;26.40;44.90
48994;DHT22;34804;49.214;12.276;2023-06-24T11:49:19;26.90;45.00
48994;DHT22;34804;49.214;12.276;2023-06-24T11:51:50;26.60;41.00
48994;DHT22;34804;49.214;12.276;2023-06-24T11:54:19;26.20;44.00
48994;DHT22;34804;49.214;12.276;2023-06-24T11:56:51;25.60;44.90
48994;DHT22;34804;49.214;12.276;2023-06-24T11:59:21;25.60;50.40
48994;DHT22;34804;49.214;12.276;2023-06-24T12:01:53;26.00;49.30
48994;DHT22;34804;49.214;12.276;2023-06-24T12:04:23;26.60;49.50
48994;DHT22;34804;49.214;12.276;2023-06-24T12:06:53;27.30;45.10
48994;DHT22;34804;49.214;12.276;2023-06-24T12:09:21;27.80;48.10
48994;DHT22;34804;49.214;12.276;2023-06-24T12:11:48;27.60;36.70
48994;DHT22;34804;49.214;12.276;2023-06-24T12:14:15;27.30;41.50
48994;DHT22;34804;49.214;12.276;2023-06-24T12:16:42;27.50;40.90
48994;DHT22;34804;49.214;12.276;2023-06-24T12:19:09;27.70;38.30
48994;DHT22;34804;49.214;12.276;2023-06-24T12:21:36;28.00;41.50
48994;DHT22;34804;49.214;12.276;2023-06-24T12:24:03;28.60;42.40
48994;DHT22;34804;49.214;12.276;2023-06-24T12:26:31;28.30;40.80
48994;DHT22;34804;49.214;12.276;2023-06-24T12:28:58;27.90;40.70
48994;DHT22;34804;49.214;12.276;2023-06-24T12:31:25;27.70;41.90
48994;DHT22;34804;49.214;12.276;2023-06-24T12:33:52;27.00;39.50
48994;DHT22;34804;49.214;12.276;2023-06-24T12:36:20;27.60;41.20
48994;DHT22;34804;49.214;12.276;2023-06-24T12:38:47;28.20;39.00
48994;DHT22;34804;49.214;12.276;2023-06-24T12:41:14;28.20;41.00
48994;DHT22;34804;49.214;12.276;2023-06-24T12:43:41;27.60;38.80
48994;DHT22;34804;49.214;12.276;2023-06-24T12:46:08;27.20;42.80
48994;DHT22;34804;49.214;12.276;2023-06-24T12:48:35;27.40;40.80
48994;DHT22;34804;49.214;12.276;2023-06-24T12:51:02;28.20;38.80
48994;DHT22;34804;49.214;12.276;2023-06-24T12:53:28;29.80;39.00
48994;DHT22;34804;49.214;12.276;2023-06-24T12:55:55;29.80;36.60
48994;DHT22;34804;49.214;12.276;2023-06-24T12:58:23;29.50;36.40
48994;DHT22;34804;49.214;12.276;2023-06-24T13:00:51;28.80;40.00
48994;DHT22;34804;49.214;12.276;2023-06-24T13:03:18;28.90;38.20
48994;DHT22;34804;49.214;12.276;2023-06-24T13:05:45;29.80;37.30
48994;DHT22;34804;49.214;12.276;2023-06-24T13:08:12;29.30;35.90
48994;DHT22;34804;49.214;12.276;2023-06-24T13:10:40;28.90;38.30
48994;DHT22;34804;49.214;12.276;2023-06-24T13:13:07;28.20;39.30
48994;DHT22;34804;49.214;12.276;2023-06-24T13:15:34;27.20;40.80
48994;DHT22;34804;49.214;12.276;2023-06-24T13:18:01;26.50;41.90
48994;DHT22;34804;49.214;12.276;2023-06-24T13:20:28;27.80;40.40
48994;DHT22;34804;49.214;12.276;2023-06-24T13:22:55;29.30;41.00
48994;DHT22;34804;49.214;12.276;2023-06-24T13:25:22;29.20;36.50
48994;DHT22;34804;49.214;12.276;2023-06-24T13:27:49;27.50;38.70
48994;DHT22;34804;49.214;12.276;2023-06-24T13:30:16;27.10;43.00
48994;DHT22;34804;49.214;12.276;2023-06-24T13:32:43;26.80;41.10
48994;DHT22;34804;49.214;12.276;2023-06-24T13:35:10;28.20;39.50
48994;DHT22;34804;49.214;12.276;2023-06-24T13:37:37;28.40;38.00
48994;DHT22;34804;49.214;12.276;2023-06-24T13:40:06;27.50;38.70
48994;DHT22;34804;49.214;12.276;2023-06-24T13:42:33;26.70;39.90
48994;DHT22;34804;49.214;12.276;2023-06-24T13:45:00;26.80;40.00
48994;DHT22;34804;49.214;12.276;2023-06-24T13:47:27;26.80;38.50
48994;DHT22;34804;49.214;12.276;2023-06-24T13:49:53;26.80;38.40
48994;DHT22;34804;49.214;12.276;2023-06-24T13:52:20;28.20;36.20
48994;DHT22;34804;49.214;12.276;2023-06-24T13:54:47;29.60;33.70
48994;DHT22;34804;49.214;12.276;2023-06-24T13:57:14;29.10;33.60
48994;DHT22;34804;49.214;12.276;2023-06-24T13:59:42;28.60;34.30
48994;DHT22;34804;49.214;12.276;2023-06-24T14:02:09;28.90;34.30
48994;DHT22;34804;49.214;12.276;2023-06-24T14:04:38;30.00;33.40
48994;DHT22;34804;49.214;12.276;2023-06-24T14:07:08;30.30;32.20
48994;DHT22;34804;49.214;12.276;2023-06-24T14:09:35;29.40;33.00
48994;DHT22;34804;49.214;12.276;2023-06-24T14:12:02;28.30;31.00
48994;DHT22;34804;49.214;12.276;2023-06-24T14:14:28;29.10;32.80
48994;DHT22;34804;49.214;12.276;2023-06-24T14:16:55;30.10;30.50
48994;DHT22;34804;49.214;12.276;2023-06-24T14:19:22;30.80;26.40
48994;DHT22;34804;49.214;12.276;2023-06-24T14:21:52;31.50;28.60
48994;DHT22;34804;49.214;12.276;2023-06-24T14:24:19;32.10;27.00
48994;DHT22;34804;49.214;12.276;2023-06-24T14:26:45;32.40;31.00
48994;DHT22;34804;49.214;12.276;2023-06-24T14:29:16;32.90;28.90
48994;DHT22;34804;49.214;12.276;2023-06-24T14:31:42;32.60;26.00
48994;DHT22;34804;49.214;12.276;2023-06-24T14:34:09;33.00;29.60
48994;DHT22;34804;49.214;12.276;2023-06-24T14:36:36;33.40;29.00
48994;DHT22;34804;49.214;12.276;2023-06-24T14:39:04;33.30;27.30
48994;DHT22;34804;49.214;12.276;2023-06-24T14:41:31;33.40;27.80
48994;DHT22;34804;49.214;12.276;2023-06-24T14:43:58;33.40;27.00
48994;DHT22;34804;49.214;12.276;2023-06-24T14:46:24;33.10;28.30
48994;DHT22;34804;49.214;12.276;2023-06-24T14:48:51;33.00;26.50
48994;DHT22;34804;49.214;12.276;2023-06-24T14:51:18;33.40;29.30
48994;DHT22;34804;49.214;12.276;2023-06-24T14:53:45;33.80;29.50
48994;DHT22;34804;49.214;12.276;2023-06-24T14:56:11;33.90;30.70
48994;DHT22;34804;49.214;12.276;2023-06-24T14:58:38;34.30;28.40
48994;DHT22;34804;49.214;12.276;2023-06-24T15:01:05;34.20;25.60
48994;DHT22;34804;49.214;12.276;2023-06-24T15:03:32;34.00;29.10
48994;DHT22;34804;49.214;12.276;2023-06-24T15:05:59;33.10;30.70
48994;DHT22;34804;49.214;12.276;2023-06-24T15:08:26;32.90;30.20
48994;DHT22;34804;49.214;12.276;2023-06-24T15:10:53;32.40;30.40
48994;DHT22;34804;49.214;12.276;2023-06-24T15:13:20;30.50;31.90
48994;DHT22;34804;49.214;12.276;2023-06-24T15:15:46;29.30;34.70
48994;DHT22;34804;49.214;12.276;2023-06-24T15:18:14;28.90;34.80
48994;DHT22;34804;49.214;12.276;2023-06-24T15:20:41;29.20;34.70
48994;DHT22;34804;49.214;12.276;2023-06-24T15:23:08;28.80;36.10
48994;DHT22;34804;49.214;12.276;2023-06-24T15:25:35;29.90;34.50
48994;DHT22;34804;49.214;12.276;2023-06-24T15:28:02;31.30;30.90
48994;DHT22;34804;49.214;12.276;2023-06-24T15:30:28;32.10;33.80
48994;DHT22;34804;49.214;12.276;2023-06-24T15:32:55;32.60;32.30
48994;DHT22;34804;49.214;12.276;2023-06-24T15:35:22;32.80;31.90
48994;DHT22;34804;49.214;12.276;2023-06-24T15:37:49;32.50;33.00
48994;DHT22;34804;49.214;12.276;2023-06-24T15:40:16;31.60;31.50